Time;durP1;ratioP1;P1;durP2;ratioP2;P2;SDS_P1;SDS_P2;PMS_P1;PMS_P2;Temp;Humidity;BMP_temperature;BMP_pressure;BME280_temperature;BME280_humidity;BME280_pressure;Samples;Min_cycle;Max_cycle;Signal;HPM_P1;HPM_P2
2023/04/10 00:03:03;;;;;;;;;;;3.29;112.50;;;;;;2672555;76;20537;-90
2023/04/10 00:06:31;;;;;;;;;;;3.25;112.45;;;;;;2671536;76;20936;-90
2023/04/10 00:09:59;;;;;;;;;;;3.20;112.42;;;;;;2671214;76;20405;-90
2023/04/10 00:13:29;;;;;;;;;;;3.12;112.71;;;;;;2671700;76;20435;-90
2023/04/10 00:17:02;;;;;;;;;;;3.10;112.72;;;;;;2671041;76;20405;-90
2023/04/10 00:20:29;;;;;;;;;;;3.03;112.75;;;;;;2671881;76;20473;-90
2023/04/10 00:24:07;;;;;;;;;;;3.00;112.87;;;;;;2671386;76;20853;-90
2023/04/10 00:27:28;;;;;;;;;;;2.96;113.05;;;;;;2672775;76;20323;-90
2023/04/10 00:30:56;;;;;;;;;;;2.99;113.09;;;;;;2671964;76;20429;-90
2023/04/10 00:34:28;;;;;;;;;;;2.89;113.24;;;;;;2671846;76;20433;-90
2023/04/10 00:37:56;;;;;;;;;;;2.81;113.61;;;;;;2672109;76;20344;-90
2023/04/10 00:41:25;;;;;;;;;;;2.79;113.54;;;;;;2671864;76;20445;-90
2023/04/10 00:44:57;;;;;;;;;;;2.78;113.47;;;;;;2671652;76;20327;-90
2023/04/10 00:48:25;;;;;;;;;;;2.73;113.38;;;;;;2672496;76;20310;-90
2023/04/10 00:51:54;;;;;;;;;;;2.72;113.36;;;;;;2672371;76;20307;-90
2023/04/10 00:55:22;;;;;;;;;;;2.71;113.41;;;;;;2672410;76;20337;-90
2023/04/10 00:58:55;;;;;;;;;;;2.70;113.41;;;;;;2672701;76;20901;-90
2023/04/10 01:02:23;;;;;;;;;;;2.65;113.42;;;;;;2672246;76;20742;-91
2023/04/10 01:05:51;;;;;;;;;;;2.54;113.48;;;;;;2672074;76;20428;-90
2023/04/10 01:09:19;;;;;;;;;;;2.56;113.70;;;;;;2672131;76;20462;-90
2023/04/10 01:12:53;;;;;;;;;;;2.53;113.65;;;;;;2671334;76;20452;-91
2023/04/10 01:16:28;;;;;;;;;;;2.47;113.74;;;;;;2672084;76;20481;-91
2023/04/10 01:19:59;;;;;;;;;;;2.42;113.82;;;;;;2671852;76;20459;-90
2023/04/10 01:23:30;;;;;;;;;;;2.41;113.84;;;;;;2672028;76;20490;-90
2023/04/10 01:27:04;;;;;;;;;;;2.37;113.88;;;;;;2671986;76;20474;-90
2023/04/10 01:30:33;;;;;;;;;;;2.35;113.98;;;;;;2672087;76;20418;-90
2023/04/10 01:34:05;;;;;;;;;;;2.28;114.00;;;;;;2671610;76;21000;-90
2023/04/10 01:37:45;;;;;;;;;;;2.27;114.03;;;;;;2671721;76;20410;-89
2023/04/10 01:41:15;;;;;;;;;;;2.25;114.11;;;;;;2671604;76;20477;-90
2023/04/10 01:44:49;;;;;;;;;;;2.16;114.99;;;;;;2671433;76;21020;-90
2023/04/10 01:48:23;;;;;;;;;;;2.14;115.48;;;;;;2672369;76;20487;-90
2023/04/10 01:55:43;;;;;;;;;;;2.16;115.62;;;;;;2672363;76;20415;-90
2023/04/10 01:59:11;;;;;;;;;;;2.17;115.58;;;;;;2671892;76;20427;-90
2023/04/10 02:02:57;;;;;;;;;;;2.15;116.38;;;;;;2672141;76;20360;-90
2023/04/10 02:06:25;;;;;;;;;;;2.17;117.21;;;;;;2672068;76;20956;-90
2023/04/10 02:09:58;;;;;;;;;;;2.16;117.42;;;;;;2671706;76;20501;-90
2023/04/10 02:13:25;;;;;;;;;;;2.11;117.73;;;;;;2672197;76;20467;-90
2023/04/10 02:16:55;;;;;;;;;;;2.10;117.30;;;;;;2671870;76;20443;-90
2023/04/10 02:20:32;;;;;;;;;;;2.08;117.09;;;;;;2671890;76;20480;-90
2023/04/10 02:23:57;;;;;;;;;;;2.07;117.22;;;;;;2671396;76;21048;-90
2023/04/10 02:27:25;;;;;;;;;;;2.06;117.63;;;;;;2672247;76;20471;-90
2023/04/10 02:30:55;;;;;;;;;;;2.03;117.50;;;;;;2671990;76;20357;-90
2023/04/10 02:34:31;;;;;;;;;;;2.05;117.36;;;;;;2671992;76;20501;-90
2023/04/10 02:37:59;;;;;;;;;;;2.06;117.17;;;;;;2669390;76;20490;-90
2023/04/10 02:41:37;;;;;;;;;;;2.02;117.04;;;;;;2672219;76;20354;-90
2023/04/10 02:45:15;;;;;;;;;;;1.99;117.00;;;;;;2671449;76;20482;-90
2023/04/10 02:48:49;;;;;;;;;;;1.93;116.98;;;;;;2671546;76;20895;-90
2023/04/10 02:52:23;;;;;;;;;;;1.94;117.00;;;;;;2671318;76;21022;-90
2023/04/10 02:55:52;;;;;;;;;;;1.93;117.15;;;;;;2672043;76;20494;-90
2023/04/10 02:59:26;;;;;;;;;;;1.87;117.13;;;;;;2672094;76;20483;-90
2023/04/10 03:02:53;;;;;;;;;;;1.86;117.06;;;;;;2671874;76;20329;-90
2023/04/10 03:06:24;;;;;;;;;;;1.79;117.05;;;;;;2671225;76;20490;-89
2023/04/10 03:09:56;;;;;;;;;;;1.75;117.43;;;;;;2670983;76;20432;-90
2023/04/10 03:13:24;;;;;;;;;;;1.73;117.47;;;;;;2671114;76;20346;-91
2023/04/10 03:16:54;;;;;;;;;;;1.69;117.57;;;;;;2671491;76;20486;-90
2023/04/10 03:20:27;;;;;;;;;;;1.68;117.53;;;;;;2671372;76;20700;-90
2023/04/10 03:23:55;;;;;;;;;;;1.62;118.26;;;;;;2671345;76;20433;-90
2023/04/10 03:27:23;;;;;;;;;;;1.54;118.94;;;;;;2672926;76;20311;-90
2023/04/10 03:30:51;;;;;;;;;;;1.53;118.87;;;;;;2673133;76;20315;-88
2023/04/10 03:34:19;;;;;;;;;;;1.49;-5.89;;;;;;2673088;76;20320;-90
2023/04/10 03:37:48;;;;;;;;;;;1.49;-5.49;;;;;;2672923;76;20403;-90
2023/04/10 03:41:16;;;;;;;;;;;1.49;-5.18;;;;;;2673088;76;20794;-88
2023/04/10 03:44:44;;;;;;;;;;;1.49;-5.19;;;;;;2672629;76;20880;-90
2023/04/10 03:48:12;;;;;;;;;;;1.49;-5.63;;;;;;2673149;76;20417;-90
2023/04/10 03:51:40;;;;;;;;;;;1.49;-5.79;;;;;;2672257;76;20412;-89
2023/04/10 03:55:08;;;;;;;;;;;1.45;-5.98;;;;;;2673188;76;20435;-89
2023/04/10 03:58:36;;;;;;;;;;;1.41;118.86;;;;;;2672916;76;20421;-90
2023/04/10 04:02:09;;;;;;;;;;;1.34;118.91;;;;;;2672424;76;20450;-89
2023/04/10 04:05:34;;;;;;;;;;;1.31;118.89;;;;;;2672829;76;20432;-90
2023/04/10 04:09:02;;;;;;;;;;;1.33;118.89;;;;;;2672989;76;20426;-90
2023/04/10 04:12:31;;;;;;;;;;;1.27;118.86;;;;;;2672953;76;20425;-89
2023/04/10 04:15:59;;;;;;;;;;;1.26;118.89;;;;;;2672579;76;20420;-90
2023/04/10 04:19:27;;;;;;;;;;;1.23;-5.98;;;;;;2673124;76;20420;-89
2023/04/10 04:22:55;;;;;;;;;;;1.20;-5.75;;;;;;2672735;76;20430;-89
2023/04/10 04:26:23;;;;;;;;;;;1.21;-5.47;;;;;;2672648;76;20437;-90
2023/04/10 04:29:51;;;;;;;;;;;1.18;-5.24;;;;;;2673092;76;20453;-89
2023/04/10 04:33:20;;;;;;;;;;;1.19;-5.29;;;;;;2672434;76;20414;-89
2023/04/10 04:36:48;;;;;;;;;;;1.26;-5.24;;;;;;2672868;76;20483;-89
2023/04/10 04:40:16;;;;;;;;;;;1.27;-5.15;;;;;;2672948;76;20927;-90
2023/04/10 04:43:46;;;;;;;;;;;1.41;-4.83;;;;;;2672216;76;20903;-89
2023/04/10 04:47:14;;;;;;;;;;;1.46;-4.79;;;;;;2672493;76;20465;-91
2023/04/10 04:50:42;;;;;;;;;;;1.50;-5.13;;;;;;2672880;76;20466;-90
2023/04/10 04:54:10;;;;;;;;;;;1.54;-5.44;;;;;;2672735;76;20414;-89
2023/04/10 04:57:38;;;;;;;;;;;1.60;-5.57;;;;;;2673001;76;20425;-90
2023/04/10 05:01:06;;;;;;;;;;;1.66;-5.56;;;;;;2673025;76;20445;-88
2023/04/10 05:04:34;;;;;;;;;;;1.75;-5.60;;;;;;2672006;76;20461;-90
2023/04/10 05:08:08;;;;;;;;;;;1.79;-5.40;;;;;;2672401;76;20424;-90
2023/04/10 05:11:33;;;;;;;;;;;1.87;-5.19;;;;;;2672627;76;20490;-90
2023/04/10 05:15:01;;;;;;;;;;;1.96;-5.22;;;;;;2672957;76;20432;-89
2023/04/10 05:18:29;;;;;;;;;;;2.03;-5.27;;;;;;2672555;76;20438;-90
2023/04/10 05:21:57;;;;;;;;;;;2.10;-4.79;;;;;;2672775;76;20472;-90
2023/04/10 05:25:25;;;;;;;;;;;2.21;-4.41;;;;;;2673341;76;20445;-90
2023/04/10 05:28:53;;;;;;;;;;;2.28;-4.31;;;;;;2673142;76;20437;-91
2023/04/10 05:32:21;;;;;;;;;;;2.41;-4.47;;;;;;2673157;76;20454;-90
2023/04/10 05:35:52;;;;;;;;;;;2.50;-4.18;;;;;;2672717;76;20468;-90
2023/04/10 05:39:19;;;;;;;;;;;2.61;-2.88;;;;;;2672461;76;20456;-90
2023/04/10 05:42:47;;;;;;;;;;;2.74;-2.22;;;;;;2672651;76;20414;-90
2023/04/10 05:46:16;;;;;;;;;;;2.88;-2.26;;;;;;2672786;76;20420;-90
2023/04/10 05:49:44;;;;;;;;;;;2.99;-1.77;;;;;;2672833;76;20457;-90
2023/04/10 05:53:13;;;;;;;;;;;3.13;-1.77;;;;;;2672343;76;20419;-90
2023/04/10 05:56:41;;;;;;;;;;;3.25;-1.37;;;;;;2673476;76;20423;-90
2023/04/10 06:00:09;;;;;;;;;;;3.39;-0.95;;;;;;2673075;76;20452;-90
2023/04/10 06:03:37;;;;;;;;;;;3.49;-0.54;;;;;;2672573;76;20473;-91
2023/04/10 06:07:06;;;;;;;;;;;3.65;-0.51;;;;;;2671890;76;20979;-91
2023/04/10 06:10:35;;;;;;;;;;;3.82;-0.67;;;;;;2672940;76;20328;-88
2023/04/10 06:14:03;;;;;;;;;;;3.95;-0.45;;;;;;2673148;76;20428;-90
2023/04/10 06:17:31;;;;;;;;;;;4.08;-0.19;;;;;;2672865;76;20440;-90
2023/04/10 06:21:00;;;;;;;;;;;4.23;-0.08;;;;;;2672112;76;20303;-90
2023/04/10 06:24:29;;;;;;;;;;;4.39;-0.00;;;;;;2673520;76;20362;-90
2023/04/10 06:27:57;;;;;;;;;;;4.53;0.45;;;;;;2671726;76;20423;-90
2023/04/10 06:31:26;;;;;;;;;;;4.64;1.09;;;;;;2672875;76;20436;-90
2023/04/10 06:34:54;;;;;;;;;;;4.80;1.23;;;;;;2672803;76;20438;-90
2023/04/10 06:38:22;;;;;;;;;;;4.92;1.71;;;;;;2672375;76;20424;-90
2023/04/10 06:41:50;;;;;;;;;;;5.03;1.91;;;;;;2672596;76;20427;-90
2023/04/10 06:45:19;;;;;;;;;;;5.18;2.25;;;;;;2673141;76;20458;-89
2023/04/10 06:48:47;;;;;;;;;;;5.33;2.55;;;;;;2672895;76;20412;-90
2023/04/10 06:52:16;;;;;;;;;;;5.53;2.74;;;;;;2672508;76;20454;-90
2023/04/10 06:55:44;;;;;;;;;;;5.65;2.85;;;;;;2671776;76;20437;-90
2023/04/10 06:59:12;;;;;;;;;;;5.80;3.55;;;;;;2672116;76;20427;-90
2023/04/10 07:02:40;;;;;;;;;;;6.00;3.89;;;;;;2672875;76;20931;-89
2023/04/10 07:06:08;;;;;;;;;;;6.21;3.64;;;;;;2672666;76;20935;-91
2023/04/10 07:09:36;;;;;;;;;;;6.42;3.43;;;;;;2672215;76;20911;-90
2023/04/10 07:13:10;;;;;;;;;;;6.60;3.21;;;;;;2673365;76;20355;-90
2023/04/10 07:16:34;;;;;;;;;;;6.81;2.93;;;;;;2671656;76;20445;-91
2023/04/10 07:20:03;;;;;;;;;;;6.90;2.87;;;;;;2671704;76;20437;-90
2023/04/10 07:23:31;;;;;;;;;;;7.08;2.35;;;;;;2672770;76;20407;-90
2023/04/10 07:27:00;;;;;;;;;;;7.20;2.39;;;;;;2672719;76;20412;-90
2023/04/10 07:30:28;;;;;;;;;;;7.26;2.35;;;;;;2673355;76;20939;-91
2023/04/10 07:33:56;;;;;;;;;;;7.33;2.16;;;;;;2672746;76;20880;-90
2023/04/10 07:37:25;;;;;;;;;;;7.35;2.08;;;;;;2672790;76;20424;-90
2023/04/10 07:40:53;;;;;;;;;;;7.50;1.89;;;;;;2672803;76;20433;-90
2023/04/10 07:44:21;;;;;;;;;;;7.64;1.58;;;;;;2672877;76;20437;-90
2023/04/10 07:47:50;;;;;;;;;;;7.82;1.21;;;;;;2673186;76;20433;-90
2023/04/10 07:51:18;;;;;;;;;;;8.00;1.06;;;;;;2672406;76;20327;-90
2023/04/10 07:54:46;;;;;;;;;;;8.17;0.77;;;;;;2673296;76;20433;-90
2023/04/10 07:58:15;;;;;;;;;;;8.32;0.53;;;;;;2672976;76;20444;-90
2023/04/10 08:01:43;;;;;;;;;;;8.45;0.33;;;;;;2673261;76;20326;-90
2023/04/10 08:05:11;;;;;;;;;;;8.56;0.01;;;;;;2672459;76;20327;-90
2023/04/10 08:08:39;;;;;;;;;;;8.73;-0.58;;;;;;2673021;76;20322;-90
2023/04/10 08:12:07;;;;;;;;;;;8.88;-1.32;;;;;;2672623;76;20313;-90
2023/04/10 08:15:35;;;;;;;;;;;9.09;-1.68;;;;;;2673309;76;20456;-90
2023/04/10 08:19:03;;;;;;;;;;;9.25;-2.14;;;;;;2672695;76;20448;-90
2023/04/10 08:22:31;;;;;;;;;;;9.49;-2.57;;;;;;2672588;76;20422;-90
2023/04/10 08:26:00;;;;;;;;;;;9.57;-3.15;;;;;;2672592;76;20418;-90
2023/04/10 08:29:28;;;;;;;;;;;9.70;-3.25;;;;;;2673080;76;20310;-90
2023/04/10 08:32:56;;;;;;;;;;;9.84;-3.60;;;;;;2671516;76;20463;-91
2023/04/10 08:36:25;;;;;;;;;;;9.97;-3.96;;;;;;2672416;76;20305;-90
2023/04/10 08:39:54;;;;;;;;;;;10.06;-4.91;;;;;;2672000;76;20417;-90
2023/04/10 08:43:22;;;;;;;;;;;10.22;-6.00;;;;;;2671308;76;20874;-90
2023/04/10 08:46:50;;;;;;;;;;;10.22;118.50;;;;;;2671780;76;20783;-89
2023/04/10 08:50:18;;;;;;;;;;;10.23;117.90;;;;;;2671464;76;20471;-90
2023/04/10 08:53:46;;;;;;;;;;;10.36;117.57;;;;;;2672812;76;20437;-91
2023/04/10 08:57:17;;;;;;;;;;;10.31;116.92;;;;;;2672079;76;20430;-90
2023/04/10 09:00:44;;;;;;;;;;;10.53;116.67;;;;;;2672212;76;20897;-90
2023/04/10 09:04:20;;;;;;;;;;;10.64;116.55;;;;;;2671904;76;20370;-89
2023/04/10 09:07:45;;;;;;;;;;;10.68;115.32;;;;;;2671456;76;20309;-90
2023/04/10 09:11:13;;;;;;;;;;;10.75;114.51;;;;;;2671796;76;20420;-89
2023/04/10 09:14:41;;;;;;;;;;;10.86;114.38;;;;;;2672442;76;20917;-90
2023/04/10 09:18:09;;;;;;;;;;;10.87;114.24;;;;;;2672013;76;20995;-90
2023/04/10 09:21:39;;;;;;;;;;;11.01;113.90;;;;;;2672363;76;20423;-89
2023/04/10 09:25:08;;;;;;;;;;;11.17;113.16;;;;;;2671588;76;20462;-89
2023/04/10 09:28:39;;;;;;;;;;;11.25;112.47;;;;;;2671072;76;20473;-89
2023/04/10 09:32:07;;;;;;;;;;;11.41;111.89;;;;;;2668617;76;20493;-89
2023/04/10 09:35:38;;;;;;;;;;;11.62;111.52;;;;;;2668269;76;20496;-89
2023/04/10 09:39:08;;;;;;;;;;;11.89;111.73;;;;;;2669670;76;20436;-90
2023/04/10 09:42:45;;;;;;;;;;;11.89;110.87;;;;;;2668486;76;20423;-90
2023/04/10 09:46:18;;;;;;;;;;;11.97;110.46;;;;;;2668927;76;20487;-91
2023/04/10 09:49:57;;;;;;;;;;;12.23;109.93;;;;;;2669949;76;20476;-90
2023/04/10 09:53:25;;;;;;;;;;;12.38;108.76;;;;;;2667520;76;20463;-90
2023/04/10 09:56:58;;;;;;;;;;;12.43;107.30;;;;;;2668985;76;20732;-90
2023/04/10 10:00:46;;;;;;;;;;;;;;;;;;;;;
2023/04/10 10:04:22;;;;;;;;;;;;;;;;;;;;;
2023/04/10 10:08:08;;;;;;;;;;;12.70;105.77;;;;;;2668115;76;20467;-90
2023/04/10 10:11:45;;;;;;;;;;;12.67;105.89;;;;;;2668295;76;20468;-92
2023/04/10 10:22:51;;;;;;;;;;;13.00;104.70;;;;;;2668047;76;20457;-92
2023/04/10 10:26:34;;;;;;;;;;;12.97;104.47;;;;;;2669139;76;20461;-90
2023/04/10 10:29:55;;;;;;;;;;;12.84;104.63;;;;;;2668912;76;20550;-90
2023/04/10 10:33:29;;;;;;;;;;;12.79;105.51;;;;;;2667934;76;20484;-89
2023/04/10 10:37:03;;;;;;;;;;;12.84;105.86;;;;;;2670129;76;20438;-90
2023/04/10 10:40:32;;;;;;;;;;;12.81;105.67;;;;;;2670075;76;20477;-90
2023/04/10 10:44:03;;;;;;;;;;;12.89;105.08;;;;;;2668891;76;21039;-90
2023/04/10 10:47:34;;;;;;;;;;;12.99;104.95;;;;;;2668441;76;20474;-90
2023/04/10 10:51:06;;;;;;;;;;;13.08;105.38;;;;;;2667623;76;20319;-90
2023/04/10 10:54:42;;;;;;;;;;;12.92;105.60;;;;;;2670329;76;20570;-90
2023/04/10 10:58:11;;;;;;;;;;;13.07;105.23;;;;;;2669808;76;20334;-90
2023/04/10 11:01:39;;;;;;;;;;;12.99;104.60;;;;;;2670165;76;20462;-90
2023/04/10 11:05:09;;;;;;;;;;;13.07;104.53;;;;;;2668682;76;20901;-90
2023/04/10 11:08:46;;;;;;;;;;;13.19;104.86;;;;;;2668088;76;20888;-90
2023/04/10 11:16:25;;;;;;;;;;;13.48;105.34;;;;;;2667747;76;20442;-91
2023/04/10 11:20:04;;;;;;;;;;;13.43;104.42;;;;;;2668223;76;20460;-90
2023/04/10 11:23:45;;;;;;;;;;;13.53;104.05;;;;;;2670287;76;20488;-90
2023/04/10 11:27:20;;;;;;;;;;;13.63;103.38;;;;;;2669035;76;20369;-90
2023/04/10 11:30:55;;;;;;;;;;;13.70;102.86;;;;;;2668100;76;20453;-91
2023/04/10 11:34:23;;;;;;;;;;;13.60;103.02;;;;;;2669833;76;20415;-91
2023/04/10 11:38:00;;;;;;;;;;;13.75;103.83;;;;;;2667929;76;20450;-91
2023/04/10 11:42:19;;;;;;;;;;;13.75;104.41;;;;;;2668965;76;20476;-89
2023/04/10 11:45:47;;;;;;;;;;;13.90;104.00;;;;;;2669218;76;21972;-90
2023/04/10 11:49:24;;;;;;;;;;;14.10;103.49;;;;;;2668781;76;20515;-90
2023/04/10 11:52:51;;;;;;;;;;;13.95;102.18;;;;;;2667254;76;20449;-90
2023/04/10 11:56:24;;;;;;;;;;;13.91;101.31;;;;;;2670459;76;20472;-90
2023/04/10 12:00:04;;;;;;;;;;;13.93;101.35;;;;;;2669682;76;20475;-91
2023/04/10 12:03:33;;;;;;;;;;;13.96;101.56;;;;;;2668857;76;20416;-91
2023/04/10 12:07:11;;;;;;;;;;;13.97;101.28;;;;;;2669964;76;20439;-91
2023/04/10 12:10:37;;;;;;;;;;;13.93;100.59;;;;;;2670042;76;20305;-90
2023/04/10 12:14:18;;;;;;;;;;;14.21;100.33;;;;;;2670106;76;20354;-90
2023/04/10 12:17:59;;;;;;;;;;;14.19;98.90;;;;;;2670744;76;20443;-90
2023/04/10 12:21:51;;;;;;;;;;;14.20;99.28;;;;;;2672007;76;20441;-90
2023/04/10 12:29:00;;;;;;;;;;;14.28;98.17;;;;;;2671330;76;20966;-90
2023/04/10 12:32:28;;;;;;;;;;;14.24;98.91;;;;;;2670252;76;20451;-90
2023/04/10 12:35:59;;;;;;;;;;;14.19;97.82;;;;;;2670850;76;20892;-90
2023/04/10 12:39:51;;;;;;;;;;;14.35;96.05;;;;;;2669406;76;20443;-90
2023/04/10 12:43:11;;;;;;;;;;;14.37;95.52;;;;;;2668503;76;20490;-90
2023/04/10 12:46:50;;;;;;;;;;;14.35;96.30;;;;;;2670366;76;20853;-90
2023/04/10 12:50:23;;;;;;;;;;;14.47;97.00;;;;;;2670330;76;20314;-90
2023/04/10 12:54:01;;;;;;;;;;;14.58;96.63;;;;;;2670423;76;20344;-91
2023/04/10 12:57:32;;;;;;;;;;;14.52;95.51;;;;;;2669797;76;20470;-92
2023/04/10 13:08:47;;;;;;;;;;;15.03;95.26;;;;;;2669432;76;20542;-92
2023/04/10 13:12:18;;;;;;;;;;;15.06;95.72;;;;;;2669625;76;20364;-92
2023/04/10 13:15:46;;;;;;;;;;;15.10;96.01;;;;;;2671195;76;20433;-91
2023/04/10 13:19:14;;;;;;;;;;;15.13;95.01;;;;;;2670985;76;20456;-92
2023/04/10 13:22:43;;;;;;;;;;;15.21;94.16;;;;;;2671659;76;20468;-92
2023/04/10 13:26:11;;;;;;;;;;;15.24;93.85;;;;;;2671659;76;20451;-92
2023/04/10 13:29:42;;;;;;;;;;;15.28;94.33;;;;;;2669762;76;20963;-92
2023/04/10 13:33:10;;;;;;;;;;;15.32;94.62;;;;;;2669227;76;20922;-92
2023/04/10 13:36:44;;;;;;;;;;;15.26;94.69;;;;;;2668775;76;20451;-92
2023/04/10 13:40:08;;;;;;;;;;;15.38;94.19;;;;;;2668812;76;21317;-92
2023/04/10 13:43:37;;;;;;;;;;;15.52;93.27;;;;;;2670085;76;20492;-92
2023/04/10 13:47:05;;;;;;;;;;;15.45;93.35;;;;;;2669024;76;20473;-92
2023/04/10 13:50:34;;;;;;;;;;;15.61;92.92;;;;;;2670033;76;20443;-92
2023/04/10 13:54:03;;;;;;;;;;;15.70;92.34;;;;;;2670600;76;20448;-92
2023/04/10 13:57:36;;;;;;;;;;;15.95;92.43;;;;;;2669437;76;20933;-92
2023/04/10 14:01:04;;;;;;;;;;;15.81;91.81;;;;;;2669897;76;20463;-92
2023/04/10 14:04:34;;;;;;;;;;;15.78;91.54;;;;;;2670047;76;20463;-92
2023/04/10 14:08:03;;;;;;;;;;;15.62;91.68;;;;;;2669976;76;20812;-92
2023/04/10 14:11:34;;;;;;;;;;;15.68;91.55;;;;;;2671482;76;20782;-92
2023/04/10 14:15:04;;;;;;;;;;;15.77;91.67;;;;;;2670912;76;20456;-92
2023/04/10 14:18:33;;;;;;;;;;;15.68;91.82;;;;;;2671449;76;20410;-92
2023/04/10 14:22:01;;;;;;;;;;;15.66;92.08;;;;;;2672149;76;20461;-92
2023/04/10 14:25:29;;;;;;;;;;;15.61;91.64;;;;;;2670993;76;20424;-92
2023/04/10 14:28:57;;;;;;;;;;;15.73;91.89;;;;;;2671816;76;20424;-92
2023/04/10 14:32:26;;;;;;;;;;;15.82;91.82;;;;;;2671387;76;20796;-92
2023/04/10 14:35:54;;;;;;;;;;;15.74;92.06;;;;;;2671536;76;20931;-92
2023/04/10 14:39:25;;;;;;;;;;;15.68;91.99;;;;;;2671416;76;20798;-92
2023/04/10 14:42:56;;;;;;;;;;;15.82;91.69;;;;;;2670094;76;20457;-92
2023/04/10 14:46:24;;;;;;;;;;;16.03;90.96;;;;;;2670138;76;20987;-92
2023/04/10 14:49:55;;;;;;;;;;;16.39;90.60;;;;;;2670164;76;20451;-92
2023/04/10 14:53:24;;;;;;;;;;;19.71;91.05;;;;;;2669819;76;20898;-92
2023/04/10 14:56:52;;;;;;;;;;;24.74;84.89;;;;;;2669958;76;20481;-92
2023/04/10 15:00:20;;;;;;;;;;;27.23;79.89;;;;;;2668828;76;20455;-93
2023/04/10 15:03:48;;;;;;;;;;;28.05;76.34;;;;;;2668928;76;20475;-93
2023/04/10 15:07:16;;;;;;;;;;;29.31;72.36;;;;;;2668483;76;20473;-92
2023/04/10 15:10:45;;;;;;;;;;;30.28;70.26;;;;;;2670113;76;20441;-92
2023/04/10 15:14:13;;;;;;;;;;;31.79;69.04;;;;;;2671716;76;20465;-92
2023/04/10 15:17:41;;;;;;;;;;;31.27;67.18;;;;;;2671988;76;20466;-92
2023/04/10 15:21:12;;;;;;;;;;;31.57;66.12;;;;;;2671428;76;20514;-90
2023/04/10 15:24:40;;;;;;;;;;;29.63;65.33;;;;;;2671215;76;20326;-90
2023/04/10 15:28:08;;;;;;;;;;;29.95;65.53;;;;;;2670444;76;20317;-90
2023/04/10 15:31:36;;;;;;;;;;;28.89;64.22;;;;;;2672272;76;20394;-90
2023/04/10 15:35:05;;;;;;;;;;;28.05;63.93;;;;;;2672851;76;20326;-90
2023/04/10 15:38:33;;;;;;;;;;;28.34;63.78;;;;;;2672100;76;20333;-90
2023/04/10 15:42:03;;;;;;;;;;;27.29;63.66;;;;;;2672270;76;20316;-89
2023/04/10 15:45:31;;;;;;;;;;;25.98;64.62;;;;;;2672777;76;20453;-90
2023/04/10 15:48:59;;;;;;;;;;;25.37;65.31;;;;;;2669629;76;20506;-91
2023/04/10 15:52:28;;;;;;;;;;;26.24;65.59;;;;;;2671367;76;20325;-91
2023/04/10 15:55:56;;;;;;;;;;;27.46;64.27;;;;;;2671034;76;20422;-90
2023/04/10 15:59:27;;;;;;;;;;;28.60;62.49;;;;;;2670378;76;20412;-91
2023/04/10 16:02:55;;;;;;;;;;;28.55;61.50;;;;;;2671702;76;20462;-91
2023/04/10 16:06:24;;;;;;;;;;;26.12;62.34;;;;;;2671824;76;20407;-90
2023/04/10 16:09:54;;;;;;;;;;;23.75;64.90;;;;;;2669905;76;20434;-90
2023/04/10 16:13:22;;;;;;;;;;;21.99;67.44;;;;;;2668307;76;20434;-90
2023/04/10 16:16:50;;;;;;;;;;;20.88;69.16;;;;;;2669956;76;20446;-90
2023/04/10 16:20:18;;;;;;;;;;;19.68;70.89;;;;;;2669276;76;20554;-90
2023/04/10 16:23:46;;;;;;;;;;;18.71;72.48;;;;;;2669270;76;20891;-88
2023/04/10 16:27:14;;;;;;;;;;;18.11;73.54;;;;;;2669730;76;20436;-89
2023/04/10 16:30:42;;;;;;;;;;;17.78;74.57;;;;;;2668428;76;20444;-89
2023/04/10 16:34:10;;;;;;;;;;;17.60;75.55;;;;;;2669286;76;21553;-90
2023/04/10 16:37:38;;;;;;;;;;;17.32;76.08;;;;;;2667399;76;20809;-89
2023/04/10 16:41:08;;;;;;;;;;;16.98;77.27;;;;;;2668596;76;20468;-89
2023/04/10 16:44:37;;;;;;;;;;;16.78;78.05;;;;;;2668581;76;20437;-89
2023/04/10 16:48:05;;;;;;;;;;;16.52;78.92;;;;;;2668824;76;20444;-89
2023/04/10 16:51:33;;;;;;;;;;;16.05;79.81;;;;;;2668322;76;20412;-89
2023/04/10 16:55:01;;;;;;;;;;;15.81;80.46;;;;;;2668839;76;20484;-90
2023/04/10 16:58:29;;;;;;;;;;;15.51;80.90;;;;;;2668619;76;20428;-91
2023/04/10 17:01:57;;;;;;;;;;;15.30;81.48;;;;;;2670640;76;20989;-92
2023/04/10 17:05:25;;;;;;;;;;;14.99;82.06;;;;;;2670368;76;20833;-90
2023/04/10 17:08:53;;;;;;;;;;;14.72;82.58;;;;;;2667890;76;20481;-89
2023/04/10 17:12:21;;;;;;;;;;;14.44;83.39;;;;;;2668487;76;20452;-90
2023/04/10 17:15:50;;;;;;;;;;;14.12;83.89;;;;;;2671173;76;20321;-89
2023/04/10 17:19:18;;;;;;;;;;;13.95;84.59;;;;;;2669374;76;20306;-91
2023/04/10 17:22:49;;;;;;;;;;;13.70;86.04;;;;;;2671769;76;20507;-90
2023/04/10 17:26:19;;;;;;;;;;;13.52;86.49;;;;;;2669123;76;20490;-89
2023/04/10 17:29:47;;;;;;;;;;;13.43;86.87;;;;;;2670561;76;20885;-88
2023/04/10 17:33:15;;;;;;;;;;;13.24;87.62;;;;;;2669299;76;20454;-88
2023/04/10 17:36:44;;;;;;;;;;;13.08;87.99;;;;;;2670454;76;20351;-88
2023/04/10 17:40:12;;;;;;;;;;;12.94;88.60;;;;;;2668265;76;20490;-88
2023/04/10 17:43:40;;;;;;;;;;;12.77;89.01;;;;;;2670587;76;20455;-89
2023/04/10 17:47:09;;;;;;;;;;;12.59;89.44;;;;;;2671835;76;20433;-89
2023/04/10 17:50:42;;;;;;;;;;;12.36;90.76;;;;;;2670585;76;20427;-89
2023/04/10 17:54:07;;;;;;;;;;;12.22;91.72;;;;;;2671212;76;20428;-91
2023/04/10 17:57:37;;;;;;;;;;;12.13;92.04;;;;;;2670155;76;20434;-88
2023/04/10 18:01:06;;;;;;;;;;;12.00;92.56;;;;;;2670672;76;20501;-89
2023/04/10 18:04:36;;;;;;;;;;;11.92;92.92;;;;;;2670242;76;20547;-90
2023/04/10 18:08:04;;;;;;;;;;;11.84;93.73;;;;;;2670018;76;20978;-91
2023/04/10 18:11:32;;;;;;;;;;;11.81;94.35;;;;;;2670180;76;20428;-89
2023/04/10 18:15:00;;;;;;;;;;;11.72;94.60;;;;;;2670745;76;20426;-89
2023/04/10 18:18:33;;;;;;;;;;;11.67;94.98;;;;;;2671297;76;20446;-90
2023/04/10 18:21:58;;;;;;;;;;;11.59;95.25;;;;;;2670651;76;20441;-89
2023/04/10 18:25:26;;;;;;;;;;;11.57;95.66;;;;;;2668929;76;20484;-91
2023/04/10 18:28:54;;;;;;;;;;;11.53;96.17;;;;;;2669985;76;20473;-91
2023/04/10 18:32:23;;;;;;;;;;;11.46;96.55;;;;;;2671418;76;20658;-91
2023/04/10 18:35:51;;;;;;;;;;;11.40;97.07;;;;;;2669946;76;20453;-88
2023/04/10 18:39:19;;;;;;;;;;;11.36;97.60;;;;;;2670510;76;20444;-90
2023/04/10 18:42:47;;;;;;;;;;;11.30;97.93;;;;;;2670332;76;20411;-90
2023/04/10 18:46:15;;;;;;;;;;;11.20;98.46;;;;;;2670201;76;20990;-90
2023/04/10 18:49:49;;;;;;;;;;;11.20;98.83;;;;;;2669398;76;20916;-91
2023/04/10 18:53:19;;;;;;;;;;;11.16;98.93;;;;;;2670058;76;20903;-90
2023/04/10 18:56:46;;;;;;;;;;;11.14;99.00;;;;;;2670077;76;20520;-90
2023/04/10 19:00:15;;;;;;;;;;;11.05;99.19;;;;;;2668252;76;20435;-90
2023/04/10 19:03:43;;;;;;;;;;;10.97;99.86;;;;;;2668420;76;20461;-90
2023/04/10 19:07:11;;;;;;;;;;;10.84;100.42;;;;;;2669165;76;20691;-90
2023/04/10 19:10:39;;;;;;;;;;;10.77;100.83;;;;;;2669459;76;20447;-90
2023/04/10 19:14:07;;;;;;;;;;;10.62;100.84;;;;;;2668823;76;20437;-91
2023/04/10 19:17:35;;;;;;;;;;;10.49;101.17;;;;;;2669392;76;20652;-90
2023/04/10 19:21:03;;;;;;;;;;;10.37;101.40;;;;;;2668536;76;20471;-89
2023/04/10 19:24:32;;;;;;;;;;;10.27;101.95;;;;;;2668707;76;20425;-90
2023/04/10 19:28:00;;;;;;;;;;;10.16;102.24;;;;;;2667071;76;20485;-90
2023/04/10 19:31:28;;;;;;;;;;;10.10;103.09;;;;;;2668964;76;20920;-90
2023/04/10 19:34:56;;;;;;;;;;;10.08;103.70;;;;;;2668135;76;20937;-89
2023/04/10 19:38:24;;;;;;;;;;;10.03;104.41;;;;;;2668551;76;20950;-88
2023/04/10 19:41:55;;;;;;;;;;;10.01;104.89;;;;;;2670117;76;20312;-91
2023/04/10 19:45:26;;;;;;;;;;;10.07;105.34;;;;;;2669746;76;20805;-88
2023/04/10 19:48:53;;;;;;;;;;;10.05;105.12;;;;;;2670104;76;20852;-90
2023/04/10 19:52:21;;;;;;;;;;;9.98;105.08;;;;;;2670522;76;20430;-88
2023/04/10 19:55:49;;;;;;;;;;;9.99;104.84;;;;;;2670708;76;20443;-89
2023/04/10 19:59:17;;;;;;;;;;;9.94;105.13;;;;;;2671170;76;20447;-89
2023/04/10 20:02:46;;;;;;;;;;;9.92;105.21;;;;;;2670525;76;20437;-88
2023/04/10 20:06:14;;;;;;;;;;;9.91;104.82;;;;;;2670963;76;20447;-88
2023/04/10 20:09:44;;;;;;;;;;;9.90;104.47;;;;;;2670925;76;20450;-89
2023/04/10 20:13:12;;;;;;;;;;;9.93;104.38;;;;;;2670037;76;20365;-89
2023/04/10 20:16:40;;;;;;;;;;;9.93;104.28;;;;;;2670881;76;20670;-89
2023/04/10 20:20:08;;;;;;;;;;;9.93;104.16;;;;;;2670637;76;20326;-90
2023/04/10 20:23:36;;;;;;;;;;;9.96;104.06;;;;;;2668652;76;20439;-89
2023/04/10 20:27:04;;;;;;;;;;;9.93;104.04;;;;;;2671258;76;20308;-89
2023/04/10 20:30:33;;;;;;;;;;;9.89;104.06;;;;;;2668503;76;20335;-90
2023/04/10 20:34:01;;;;;;;;;;;9.86;104.09;;;;;;2669434;76;20809;-89
2023/04/10 20:37:32;;;;;;;;;;;9.79;104.11;;;;;;2667253;76;20467;-88
2023/04/10 20:41:00;;;;;;;;;;;9.71;104.18;;;;;;2671055;76;20433;-89
2023/04/10 20:44:28;;;;;;;;;;;9.60;104.24;;;;;;2671481;76;20439;-89
2023/04/10 20:47:59;;;;;;;;;;;9.47;104.38;;;;;;2672908;76;20428;-89
2023/04/10 20:51:27;;;;;;;;;;;9.32;104.44;;;;;;2671548;76;20321;-90
2023/04/10 20:54:55;;;;;;;;;;;9.26;104.58;;;;;;2672057;76;20318;-90